createdAt,value
2018-06-30T00:01:55.617Z,96.90
2018-06-30T00:04:23.401Z,97.20
2018-06-30T00:06:51.305Z,97.50
2018-06-30T00:09:19.260Z,97.30
2018-06-30T00:11:47.180Z,97.40
2018-06-30T00:14:15.008Z,97.80
2018-06-30T00:16:42.846Z,98.60
2018-06-30T00:19:10.873Z,98.70
2018-06-30T00:21:38.702Z,99.00
2018-06-30T00:24:06.590Z,99.30
2018-06-30T00:26:34.520Z,99.90
2018-06-30T00:29:02.406Z,99.80
2018-06-30T00:31:30.252Z,99.90
2018-06-30T00:33:58.086Z,99.90
2018-06-30T00:36:25.986Z,99.90
2018-06-30T00:38:53.807Z,99.90
2018-06-30T00:41:21.716Z,99.90
2018-06-30T00:43:49.629Z,99.90
2018-06-30T00:46:17.479Z,99.90
2018-06-30T00:48:45.327Z,99.90
2018-06-30T00:51:13.163Z,99.90
2018-06-30T00:53:40.962Z,99.90
2018-06-30T00:56:08.906Z,99.90
2018-06-30T00:58:36.814Z,99.90
2018-06-30T01:01:04.791Z,99.90
2018-06-30T01:03:32.592Z,99.90
2018-06-30T01:06:00.434Z,99.90
2018-06-30T01:08:28.257Z,99.90
2018-06-30T01:10:56.206Z,99.90
2018-06-30T01:13:24.253Z,99.90
2018-06-30T01:15:52.083Z,99.90
2018-06-30T01:18:19.991Z,99.90
2018-06-30T01:20:47.838Z,99.90
2018-06-30T01:23:15.722Z,99.90
2018-06-30T01:25:43.590Z,99.90
2018-06-30T01:28:11.489Z,99.90
2018-06-30T01:30:39.298Z,99.90
2018-06-30T01:33:07.182Z,99.90
2018-06-30T01:35:34.999Z,99.90
2018-06-30T01:38:02.779Z,99.90
2018-06-30T01:40:30.622Z,99.90
2018-06-30T01:42:58.471Z,99.90
2018-06-30T01:45:26.382Z,99.90
2018-06-30T01:47:54.200Z,99.90
2018-06-30T01:50:22.072Z,99.90
2018-06-30T01:52:49.972Z,99.90
2018-06-30T01:55:17.779Z,99.90
2018-06-30T01:57:45.609Z,99.90
2018-06-30T02:00:13.427Z,99.90
2018-06-30T02:02:41.237Z,99.90
2018-06-30T02:05:09.086Z,99.90
2018-06-30T02:07:36.862Z,99.90
2018-06-30T02:10:04.751Z,99.90
2018-06-30T02:12:32.654Z,99.90
2018-06-30T02:15:00.466Z,99.90
2018-06-30T02:17:28.294Z,99.90
2018-06-30T02:19:56.177Z,99.90
2018-06-30T02:22:24.050Z,99.90
2018-06-30T02:24:51.824Z,99.90
2018-06-30T02:27:19.656Z,99.90
2018-06-30T02:29:47.527Z,99.90
2018-06-30T02:32:15.328Z,99.90
2018-06-30T02:34:43.178Z,99.90
2018-06-30T02:37:11.019Z,99.90
2018-06-30T02:39:38.812Z,99.90
2018-06-30T02:42:06.850Z,99.90
2018-06-30T02:44:34.734Z,99.90
2018-06-30T02:47:02.682Z,99.90
2018-06-30T02:49:30.503Z,99.90
2018-06-30T02:54:26.030Z,99.90
2018-06-30T02:56:53.891Z,99.90
2018-06-30T02:59:21.763Z,99.90
2018-06-30T03:01:49.756Z,99.90
2018-06-30T03:04:17.573Z,99.90
2018-06-30T03:06:45.362Z,99.90
2018-06-30T03:09:13.154Z,99.90
2018-06-30T03:11:41.257Z,99.90
2018-06-30T03:14:09.123Z,99.90
2018-06-30T03:16:37.083Z,99.90
2018-06-30T03:19:04.850Z,99.90
2018-06-30T03:21:32.756Z,99.90
2018-06-30T03:24:00.538Z,99.90
2018-06-30T03:26:28.326Z,99.90
2018-06-30T03:28:56.180Z,99.90
2018-06-30T03:31:24.124Z,99.90
2018-06-30T03:33:51.894Z,99.90
2018-06-30T03:36:19.756Z,99.90
2018-06-30T03:38:47.597Z,99.90
2018-06-30T03:41:15.490Z,99.90
2018-06-30T03:43:43.306Z,99.90
2018-06-30T03:46:11.245Z,99.90
2018-06-30T03:48:39.054Z,99.90
2018-06-30T03:51:07.029Z,99.90
2018-06-30T03:53:34.879Z,99.90
2018-06-30T03:56:02.803Z,99.90
2018-06-30T03:58:30.699Z,99.90
2018-06-30T04:00:58.539Z,99.90
2018-06-30T04:03:26.405Z,99.90
2018-06-30T04:05:54.295Z,99.90
2018-06-30T04:08:22.114Z,99.90
2018-06-30T04:10:50.007Z,99.90
2018-06-30T04:13:17.882Z,99.90
2018-06-30T04:15:45.771Z,99.90
2018-06-30T04:18:13.628Z,99.90
2018-06-30T04:20:41.486Z,99.90
2018-06-30T04:23:09.309Z,99.90
2018-06-30T04:25:37.164Z,99.90
2018-06-30T04:28:05.266Z,99.90
2018-06-30T04:30:33.125Z,99.90
2018-06-30T04:33:00.970Z,99.90
2018-06-30T04:35:28.893Z,99.90
2018-06-30T04:37:56.679Z,99.90
2018-06-30T04:40:24.539Z,99.90
2018-06-30T04:42:52.426Z,99.90
2018-06-30T04:45:20.349Z,99.90
2018-06-30T04:47:48.197Z,99.90
2018-06-30T04:50:16.055Z,99.90
2018-06-30T04:52:43.974Z,99.90
2018-06-30T04:55:11.865Z,99.90
2018-06-30T04:57:39.758Z,99.90
2018-06-30T05:00:07.606Z,99.90
2018-06-30T05:02:35.463Z,99.90
2018-06-30T05:05:03.325Z,99.90
2018-06-30T05:07:31.115Z,99.90
2018-06-30T05:09:59.061Z,99.90
2018-06-30T05:12:26.882Z,99.90
2018-06-30T05:14:54.807Z,99.90
2018-06-30T05:17:22.674Z,99.90
2018-06-30T05:19:50.614Z,99.90
2018-06-30T05:22:18.436Z,99.90
2018-06-30T05:24:46.383Z,99.90
2018-06-30T05:27:14.234Z,99.90
2018-06-30T05:29:42.119Z,99.90
2018-06-30T05:34:37.596Z,99.90
2018-06-30T05:37:05.490Z,99.90
2018-06-30T05:39:33.345Z,99.90
2018-06-30T05:42:01.182Z,99.90
2018-06-30T05:44:28.963Z,99.90
2018-06-30T05:46:56.816Z,99.90
2018-06-30T05:49:24.682Z,99.90
2018-06-30T05:51:52.905Z,99.90
2018-06-30T05:54:20.771Z,99.90
2018-06-30T05:56:48.666Z,99.90
2018-06-30T05:59:16.495Z,99.90
2018-06-30T06:01:44.981Z,99.90
2018-06-30T06:04:12.770Z,99.90
2018-06-30T06:06:40.566Z,99.90
2018-06-30T06:09:09.987Z,99.90
2018-06-30T06:11:37.782Z,99.90
2018-06-30T06:14:05.911Z,99.90
2018-06-30T06:16:33.797Z,99.90
2018-06-30T06:19:01.658Z,99.90
2018-06-30T06:21:29.470Z,99.90
2018-06-30T06:23:57.280Z,99.90
2018-06-30T06:26:25.176Z,99.90
2018-06-30T06:28:53.104Z,99.90
2018-06-30T06:31:20.983Z,99.90
2018-06-30T06:33:48.749Z,99.80
2018-06-30T06:36:16.631Z,99.70
2018-06-30T06:38:44.465Z,99.40
2018-06-30T06:41:12.323Z,99.10
2018-06-30T06:43:40.264Z,98.90
2018-06-30T06:46:08.114Z,98.40
2018-06-30T06:48:35.911Z,98.30
2018-06-30T06:51:03.781Z,97.20
2018-06-30T06:53:31.548Z,96.60
2018-06-30T06:55:59.398Z,96.20
2018-06-30T06:58:27.240Z,96.30
2018-06-30T07:00:55.029Z,95.60
2018-06-30T07:03:22.880Z,95.60
2018-06-30T07:05:51.278Z,95.30
2018-06-30T07:08:19.133Z,94.60
2018-06-30T07:10:46.923Z,94.50
2018-06-30T07:13:14.757Z,93.90
2018-06-30T07:15:42.621Z,92.00
2018-06-30T07:18:10.632Z,87.50
2018-06-30T07:20:38.511Z,78.50
2018-06-30T07:23:06.403Z,75.20
2018-06-30T07:25:34.557Z,72.90
2018-06-30T07:28:02.140Z,72.60
2018-06-30T07:30:30.007Z,75.10
2018-06-30T07:32:57.834Z,76.90
2018-06-30T07:35:25.747Z,76.50
2018-06-30T07:37:53.946Z,72.00
2018-06-30T07:40:21.792Z,65.70
2018-06-30T07:42:49.668Z,57.40
2018-06-30T07:45:17.409Z,53.60
2018-06-30T07:47:45.237Z,49.10
2018-06-30T07:50:13.252Z,44.40
2018-06-30T07:52:40.870Z,43.30
2018-06-30T07:55:08.616Z,41.20
2018-06-30T07:57:36.393Z,38.90
2018-06-30T08:00:04.702Z,38.70
2018-06-30T08:02:32.478Z,39.30
2018-06-30T08:05:00.267Z,36.40
2018-06-30T08:07:28.243Z,35.80
2018-06-30T08:09:56.095Z,34.30
2018-06-30T08:12:23.871Z,32.40
2018-06-30T08:14:51.750Z,32.30
2018-06-30T08:17:19.621Z,35.40
2018-06-30T08:19:47.336Z,35.40
2018-06-30T08:22:15.138Z,33.50
2018-06-30T08:24:42.937Z,32.70
2018-06-30T08:27:10.659Z,31.90
2018-06-30T08:29:38.576Z,30.60
2018-06-30T08:32:06.223Z,30.60
2018-06-30T08:34:34.016Z,29.90
2018-06-30T08:37:02.143Z,29.10
2018-06-30T08:39:31.839Z,28.20
2018-06-30T08:41:59.725Z,27.60
2018-06-30T08:44:27.508Z,27.30
2018-06-30T08:46:56.667Z,26.50
2018-06-30T08:49:24.494Z,28.20
2018-06-30T08:51:52.398Z,29.40
2018-06-30T08:54:20.247Z,29.90
2018-06-30T08:56:48.174Z,29.80
2018-06-30T08:59:16.103Z,28.80
2018-06-30T09:01:43.914Z,28.00
2018-06-30T09:04:11.820Z,28.20
2018-06-30T09:06:39.721Z,29.10
2018-06-30T09:09:08.554Z,29.50
2018-06-30T09:11:36.383Z,28.50
2018-06-30T09:14:04.388Z,28.20
2018-06-30T09:16:32.165Z,27.10
2018-06-30T09:19:00.131Z,26.50
2018-06-30T09:21:27.860Z,26.10
2018-06-30T09:23:55.687Z,25.40
2018-06-30T09:26:23.577Z,25.60
2018-06-30T09:28:51.389Z,25.80
2018-06-30T09:31:19.142Z,26.10
2018-06-30T09:33:47.038Z,26.40
2018-06-30T09:36:14.870Z,26.60
2018-06-30T09:38:42.699Z,26.40
2018-06-30T09:41:10.467Z,26.00
2018-06-30T09:43:38.217Z,25.60
2018-06-30T09:46:06.151Z,26.60
2018-06-30T09:48:33.977Z,25.70
2018-06-30T09:51:01.882Z,25.30
2018-06-30T09:53:29.670Z,25.40
2018-06-30T09:55:57.522Z,25.40
2018-06-30T09:58:25.311Z,25.60
2018-06-30T10:00:58.782Z,25.10
2018-06-30T10:03:26.565Z,25.10
2018-06-30T10:05:54.433Z,25.30
2018-06-30T10:08:22.266Z,25.70
2018-06-30T10:10:50.425Z,25.80
2018-06-30T10:13:18.267Z,27.30
2018-06-30T10:15:46.094Z,27.40
2018-06-30T10:18:13.963Z,26.70
2018-06-30T10:20:41.830Z,26.10
2018-06-30T10:23:09.663Z,26.40
2018-06-30T10:25:37.493Z,25.30
2018-06-30T10:28:05.273Z,25.70
2018-06-30T10:30:33.102Z,26.20
2018-06-30T10:33:00.890Z,25.90
2018-06-30T10:35:28.691Z,24.80
2018-06-30T10:37:56.498Z,24.30
2018-06-30T10:40:24.306Z,23.60
2018-06-30T10:42:51.983Z,24.00
2018-06-30T10:45:19.781Z,23.90
2018-06-30T10:47:47.566Z,24.30
2018-06-30T10:50:15.266Z,24.70
2018-06-30T10:52:43.051Z,25.40
2018-06-30T10:55:10.801Z,25.60
2018-06-30T10:57:38.485Z,25.40
2018-06-30T11:00:06.383Z,25.70
2018-06-30T11:02:34.145Z,25.90
2018-06-30T11:05:02.020Z,25.70
2018-06-30T11:07:29.842Z,25.10
2018-06-30T11:09:57.634Z,25.00
2018-06-30T11:12:25.453Z,25.00
2018-06-30T11:14:53.383Z,25.00
2018-06-30T11:17:21.186Z,25.00
2018-06-30T11:19:49.004Z,25.00
2018-06-30T11:22:16.700Z,24.60
2018-06-30T11:24:44.497Z,24.60
2018-06-30T11:27:12.298Z,24.20
2018-06-30T11:29:40.113Z,24.70
2018-06-30T11:32:08.002Z,25.30
2018-06-30T11:34:35.783Z,25.10
2018-06-30T11:37:03.801Z,24.30
2018-06-30T11:39:31.577Z,25.10
2018-06-30T11:41:59.330Z,26.30
2018-06-30T11:44:27.179Z,26.30
2018-06-30T11:46:55.069Z,25.30
2018-06-30T11:49:22.859Z,25.20
2018-06-30T11:51:50.746Z,25.60
2018-06-30T11:54:18.516Z,24.40
2018-06-30T11:59:14.086Z,24.20
2018-06-30T12:01:42.163Z,24.40
2018-06-30T12:04:09.982Z,24.40
2018-06-30T12:06:37.830Z,23.90
2018-06-30T12:09:08.154Z,23.50
2018-06-30T12:11:36.007Z,24.40
2018-06-30T12:14:04.483Z,25.20
2018-06-30T12:16:32.335Z,25.10
2018-06-30T12:19:00.098Z,24.80
2018-06-30T12:21:27.966Z,24.50
2018-06-30T12:23:55.780Z,25.10
2018-06-30T12:26:23.678Z,25.40
2018-06-30T12:28:51.572Z,26.60
2018-06-30T12:31:19.438Z,26.70
2018-06-30T12:33:47.297Z,27.30
2018-06-30T12:36:15.188Z,26.20
2018-06-30T12:38:43.159Z,25.90
2018-06-30T12:41:11.065Z,25.70
2018-06-30T12:43:39.134Z,25.90
2018-06-30T12:46:07.130Z,27.00
2018-06-30T12:48:35.059Z,27.70
2018-06-30T12:51:03.005Z,27.80
2018-06-30T12:53:30.822Z,27.90
2018-06-30T12:55:58.698Z,28.30
2018-06-30T12:58:26.516Z,28.20
2018-06-30T13:03:22.025Z,28.30
2018-06-30T13:05:49.874Z,28.20
2018-06-30T13:08:24.350Z,27.40
2018-06-30T13:10:52.071Z,27.70
2018-06-30T13:13:19.849Z,27.10
2018-06-30T13:15:47.710Z,27.10
2018-06-30T13:18:15.662Z,26.90
2018-06-30T13:20:43.521Z,26.50
2018-06-30T13:23:11.487Z,26.30
2018-06-30T13:25:39.361Z,26.00
2018-06-30T13:28:07.253Z,26.10
2018-06-30T13:30:35.121Z,26.20
2018-06-30T13:33:03.101Z,25.70
2018-06-30T13:35:30.905Z,25.80
2018-06-30T13:37:58.876Z,25.60
2018-06-30T13:40:26.753Z,25.90
2018-06-30T13:42:54.626Z,26.30
2018-06-30T13:45:22.490Z,26.60
2018-06-30T13:47:50.333Z,27.10
2018-06-30T13:50:18.181Z,26.70
2018-06-30T13:52:46.179Z,26.40
2018-06-30T13:55:14.003Z,26.70
2018-06-30T13:57:41.848Z,26.90
2018-06-30T14:00:09.847Z,27.30
2018-06-30T14:02:37.678Z,27.50
2018-06-30T14:05:05.839Z,27.10
2018-06-30T14:07:33.714Z,27.00
2018-06-30T14:10:01.537Z,27.30
2018-06-30T14:12:29.377Z,26.90
2018-06-30T14:14:57.211Z,27.20
2018-06-30T14:17:25.029Z,27.20
2018-06-30T14:19:52.920Z,27.10
2018-06-30T14:22:20.751Z,26.80
2018-06-30T14:24:48.654Z,26.90
2018-06-30T14:27:16.534Z,27.30
2018-06-30T14:29:44.415Z,27.40
2018-06-30T14:34:40.025Z,27.30
2018-06-30T14:37:07.701Z,27.00
2018-06-30T14:39:35.301Z,26.60
2018-06-30T14:42:02.859Z,27.10
2018-06-30T14:48:02.831Z,26.40
2018-06-30T14:50:30.486Z,26.00
2018-06-30T14:52:58.269Z,26.60
2018-06-30T14:55:25.950Z,27.10
2018-06-30T14:57:53.641Z,27.30
2018-06-30T15:00:21.253Z,27.30
2018-06-30T15:02:48.896Z,26.90
2018-06-30T15:05:16.476Z,26.50
2018-06-30T15:07:44.082Z,26.80
2018-06-30T15:10:11.734Z,26.80
2018-06-30T15:12:39.346Z,26.60
2018-06-30T15:15:07.068Z,26.70
2018-06-30T15:17:34.691Z,26.60
2018-06-30T15:20:02.324Z,27.00
2018-06-30T15:22:30.017Z,27.20
2018-06-30T15:24:57.674Z,27.10
2018-06-30T15:27:25.293Z,27.60
2018-06-30T15:29:52.895Z,27.60
2018-06-30T15:32:20.556Z,26.90
2018-06-30T15:34:48.181Z,27.60
2018-06-30T15:37:15.864Z,27.10
2018-06-30T15:39:43.436Z,27.00
2018-06-30T15:42:11.071Z,26.30
2018-06-30T15:44:45.328Z,26.80
2018-06-30T15:47:13.214Z,26.80
2018-06-30T15:49:53.552Z,27.00
2018-06-30T15:52:21.165Z,27.00
2018-06-30T15:54:49.108Z,26.80
2018-06-30T15:57:16.689Z,26.30
2018-06-30T15:59:44.254Z,26.80
2018-06-30T16:02:11.845Z,26.80
2018-06-30T16:04:39.510Z,26.30
2018-06-30T16:07:07.142Z,26.70
2018-06-30T16:09:34.857Z,26.50
2018-06-30T16:12:02.435Z,26.10
2018-06-30T16:14:30.034Z,25.50
2018-06-30T16:16:57.613Z,25.70
2018-06-30T16:19:25.164Z,25.80
2018-06-30T16:21:52.725Z,26.10
2018-06-30T16:24:20.308Z,26.00
2018-06-30T16:26:48.008Z,25.70
2018-06-30T16:29:15.650Z,25.70
2018-06-30T16:31:43.237Z,25.60
2018-06-30T16:34:10.889Z,26.00
2018-06-30T16:36:38.548Z,26.10
2018-06-30T16:39:07.340Z,26.20
2018-06-30T16:41:34.964Z,26.00
2018-06-30T16:44:02.678Z,25.60
2018-06-30T16:46:30.238Z,25.40
2018-06-30T16:48:57.772Z,25.40
2018-06-30T16:51:25.345Z,25.60
2018-06-30T16:53:52.912Z,25.60
2018-06-30T16:56:20.534Z,25.50
2018-06-30T16:58:48.112Z,25.60
2018-06-30T17:01:15.692Z,25.50
2018-06-30T17:03:43.251Z,25.50
2018-06-30T17:06:10.901Z,25.60
2018-06-30T17:08:38.496Z,25.70
2018-06-30T17:13:33.677Z,25.40
2018-06-30T17:16:01.266Z,25.10
2018-06-30T17:18:28.884Z,25.30
2018-06-30T17:20:57.294Z,25.00
2018-06-30T17:23:24.914Z,24.70
2018-06-30T17:25:52.534Z,24.80
2018-06-30T17:28:20.150Z,24.70
2018-06-30T17:30:50.854Z,24.60
2018-06-30T17:33:18.470Z,24.50
2018-06-30T17:35:46.104Z,24.70
2018-06-30T17:38:13.729Z,24.50
2018-06-30T17:43:08.812Z,24.60
2018-06-30T17:45:36.463Z,24.60
2018-06-30T17:48:04.370Z,24.50
2018-06-30T17:50:32.017Z,24.60
2018-06-30T17:52:59.665Z,24.70
2018-06-30T17:55:27.261Z,24.80
2018-06-30T17:57:54.926Z,24.90
2018-06-30T18:00:22.533Z,25.00
2018-06-30T18:02:50.110Z,24.90
2018-06-30T18:05:17.679Z,25.00
2018-06-30T18:07:45.371Z,25.20
2018-06-30T18:10:13.040Z,25.10
2018-06-30T18:12:40.631Z,25.30
2018-06-30T18:15:08.223Z,25.50
2018-06-30T18:17:35.822Z,25.40
2018-06-30T18:20:03.732Z,25.50
2018-06-30T18:22:31.309Z,25.90
2018-06-30T18:24:58.902Z,25.40
2018-06-30T18:27:26.500Z,25.10
2018-06-30T18:29:54.166Z,25.10
2018-06-30T18:32:21.718Z,25.00
2018-06-30T18:34:49.318Z,25.20
2018-06-30T18:37:16.940Z,25.30
2018-06-30T18:39:44.489Z,25.40
2018-06-30T18:42:12.085Z,25.40
2018-06-30T18:44:39.717Z,25.40
2018-06-30T18:47:07.281Z,25.60
2018-06-30T18:49:34.854Z,25.60
2018-06-30T18:52:02.488Z,25.70
2018-06-30T18:54:30.066Z,25.70
2018-06-30T18:56:57.680Z,25.80
2018-06-30T18:59:25.249Z,25.70
2018-06-30T19:01:52.820Z,25.80
2018-06-30T19:04:20.365Z,26.20
2018-06-30T19:06:47.985Z,26.30
2018-06-30T19:09:20.926Z,26.50
2018-06-30T19:11:48.557Z,26.70
2018-06-30T19:14:16.161Z,27.00
2018-06-30T19:16:43.856Z,27.10
2018-06-30T19:19:11.513Z,27.30
2018-06-30T19:21:39.183Z,27.60
2018-06-30T19:24:06.845Z,27.60
2018-06-30T19:26:34.462Z,27.80
2018-06-30T19:29:02.108Z,27.90
2018-06-30T19:31:29.757Z,27.90
2018-06-30T19:33:57.389Z,28.00
2018-06-30T19:36:25.038Z,28.10
2018-06-30T19:38:52.656Z,28.30
2018-06-30T19:41:20.307Z,28.40
2018-06-30T19:43:47.905Z,28.40
2018-06-30T19:46:15.556Z,28.60
2018-06-30T19:48:43.145Z,28.80
2018-06-30T19:51:10.789Z,29.00
2018-06-30T19:53:38.397Z,29.20
2018-06-30T19:56:06.083Z,29.80
2018-06-30T19:58:33.691Z,29.70
2018-06-30T20:01:01.321Z,30.00
2018-06-30T20:03:28.922Z,30.20
2018-06-30T20:05:56.550Z,31.40
2018-06-30T20:08:24.228Z,31.20
2018-06-30T20:10:51.873Z,32.00
2018-06-30T20:13:19.489Z,31.80
2018-06-30T20:15:47.097Z,32.10
2018-06-30T20:18:14.972Z,32.50
2018-06-30T20:20:42.547Z,32.80
2018-06-30T20:23:10.113Z,32.70
2018-06-30T20:25:37.847Z,33.20
2018-06-30T20:28:05.540Z,33.10
2018-06-30T20:30:33.158Z,33.50
2018-06-30T20:33:00.781Z,33.60
2018-06-30T20:35:28.526Z,33.60
2018-06-30T20:37:56.162Z,33.70
2018-06-30T20:40:23.819Z,34.00
2018-06-30T20:45:19.133Z,34.80
2018-06-30T20:47:46.773Z,34.00
2018-06-30T20:50:14.419Z,34.20
2018-06-30T20:52:42.145Z,34.30
2018-06-30T20:55:09.745Z,34.80
2018-06-30T20:57:37.416Z,34.60
2018-06-30T21:00:05.246Z,34.70
2018-06-30T21:02:32.906Z,34.90
2018-06-30T21:05:00.532Z,34.80
2018-06-30T21:07:28.181Z,35.00
2018-06-30T21:09:55.762Z,34.90
2018-06-30T21:12:23.437Z,35.00
2018-06-30T21:14:50.984Z,35.10
2018-06-30T21:19:46.143Z,35.50
2018-06-30T21:22:13.769Z,35.50
2018-06-30T21:24:41.556Z,35.80
2018-06-30T21:27:09.134Z,35.90
2018-06-30T21:29:36.764Z,36.00
2018-06-30T21:32:04.348Z,36.10
2018-06-30T21:34:31.942Z,36.10
2018-06-30T21:36:59.786Z,36.30
2018-06-30T21:39:27.430Z,36.80
2018-06-30T21:41:55.020Z,36.60
2018-06-30T21:44:22.645Z,36.80
2018-06-30T21:46:50.261Z,36.90
2018-06-30T21:49:17.873Z,37.10
2018-06-30T21:51:45.498Z,37.40
2018-06-30T21:54:13.114Z,38.10
2018-06-30T21:56:40.682Z,37.50
2018-06-30T21:59:08.534Z,37.90
2018-06-30T22:01:36.229Z,37.90
2018-06-30T22:04:03.912Z,38.10
2018-06-30T22:06:31.537Z,38.20
2018-06-30T22:08:59.122Z,38.40
2018-06-30T22:11:26.781Z,38.40
2018-06-30T22:13:54.381Z,38.60
2018-06-30T22:16:22.024Z,38.70
2018-06-30T22:18:49.575Z,38.70
2018-06-30T22:21:17.182Z,39.10
2018-06-30T22:23:44.785Z,39.20
2018-06-30T22:26:12.427Z,39.30
2018-06-30T22:28:40.030Z,39.50
2018-06-30T22:31:07.659Z,39.60
2018-06-30T22:33:35.241Z,39.70
2018-06-30T22:36:02.966Z,40.10
2018-06-30T22:38:30.718Z,40.00
2018-06-30T22:40:58.334Z,40.00
2018-06-30T22:43:25.978Z,40.00
2018-06-30T22:45:53.696Z,40.00
2018-06-30T22:48:21.312Z,40.30
2018-06-30T22:50:48.988Z,40.00
2018-06-30T22:53:16.638Z,40.30
2018-06-30T22:55:44.257Z,40.70
2018-06-30T22:58:11.905Z,40.90
2018-06-30T23:00:39.539Z,40.90
2018-06-30T23:03:11.277Z,40.90
2018-06-30T23:05:39.533Z,41.10
2018-06-30T23:08:07.233Z,41.70
2018-06-30T23:10:34.874Z,41.50
2018-06-30T23:13:02.487Z,41.70
2018-06-30T23:15:30.157Z,41.70
2018-06-30T23:17:57.686Z,41.80
2018-06-30T23:20:25.284Z,42.50
2018-06-30T23:23:08.177Z,41.80
2018-06-30T23:25:36.509Z,41.90
2018-06-30T23:28:04.232Z,41.90
2018-06-30T23:30:32.415Z,42.20
2018-06-30T23:33:00.013Z,42.30
2018-06-30T23:35:28.821Z,42.20
2018-06-30T23:37:57.370Z,42.40
2018-06-30T23:40:24.971Z,42.40
2018-06-30T23:42:52.737Z,42.60
2018-06-30T23:45:20.857Z,42.60
2018-06-30T23:47:49.045Z,42.70
2018-06-30T23:50:16.663Z,42.50
2018-06-30T23:52:44.242Z,42.50
2018-06-30T23:57:39.761Z,43.20
